createdAt,value
2018-03-06T00:00:10.898Z,1.90
2018-03-06T00:02:38.453Z,1.90
2018-03-06T00:05:06.044Z,1.80
2018-03-06T00:07:34.383Z,1.80
2018-03-06T00:10:01.971Z,1.70
2018-03-06T00:12:30.314Z,1.70
2018-03-06T00:14:57.901Z,1.70
2018-03-06T00:17:25.449Z,1.70
2018-03-06T00:19:53.009Z,1.60
2018-03-06T00:22:20.627Z,1.60
2018-03-06T00:24:48.195Z,1.50
2018-03-06T00:27:15.773Z,1.50
2018-03-06T00:29:43.393Z,1.60
2018-03-06T00:32:11.724Z,1.50
2018-03-06T00:34:39.292Z,1.50
2018-03-06T00:37:06.882Z,1.50
2018-03-06T00:39:35.234Z,1.50
2018-03-06T00:42:02.851Z,1.50
2018-03-06T00:44:30.441Z,1.60
2018-03-06T00:46:58.019Z,1.80
2018-03-06T00:49:25.590Z,1.80
2018-03-06T00:51:53.166Z,1.70
2018-03-06T00:54:20.762Z,1.70
2018-03-06T00:56:48.349Z,1.70
2018-03-06T00:59:15.917Z,1.50
2018-03-06T01:01:43.514Z,1.40
2018-03-06T01:04:11.838Z,1.60
2018-03-06T01:06:39.407Z,1.60
2018-03-06T01:09:07.035Z,1.60
2018-03-06T01:11:34.601Z,1.60
2018-03-06T01:14:02.183Z,1.40
2018-03-06T01:16:29.741Z,1.30
2018-03-06T01:18:57.314Z,1.40
2018-03-06T01:21:24.888Z,1.50
2018-03-06T01:23:52.454Z,1.30
2018-03-06T01:26:20.036Z,1.10
2018-03-06T01:28:48.390Z,1.40
2018-03-06T01:31:15.997Z,1.40
2018-03-06T01:33:43.559Z,1.40
2018-03-06T01:36:11.357Z,1.50
2018-03-06T01:38:38.960Z,1.30
2018-03-06T01:41:07.301Z,1.10
2018-03-06T01:43:34.893Z,1.10
2018-03-06T01:46:02.451Z,1.10
2018-03-06T01:48:30.819Z,0.90
2018-03-06T01:50:59.182Z,1.00
2018-03-06T01:53:26.768Z,1.00
2018-03-06T01:55:55.125Z,1.00
2018-03-06T01:58:22.771Z,1.00
2018-03-06T02:00:50.329Z,1.00
2018-03-06T02:03:17.920Z,0.90
2018-03-06T02:05:46.252Z,0.80
2018-03-06T02:08:13.830Z,0.70
2018-03-06T02:10:41.395Z,0.70
2018-03-06T02:13:08.976Z,0.70
2018-03-06T02:15:37.327Z,0.70
2018-03-06T02:18:04.909Z,0.70
2018-03-06T02:20:32.479Z,0.60
2018-03-06T02:23:00.077Z,0.50
2018-03-06T02:25:27.668Z,0.40
2018-03-06T02:27:55.249Z,0.40
2018-03-06T02:30:22.810Z,0.40
2018-03-06T02:32:50.413Z,0.50
2018-03-06T02:35:17.989Z,0.40
2018-03-06T02:37:45.587Z,0.40
2018-03-06T02:40:13.152Z,0.40
2018-03-06T02:42:40.745Z,0.40
2018-03-06T02:45:08.324Z,0.30
2018-03-06T02:47:35.888Z,0.40
2018-03-06T02:50:03.477Z,0.40
2018-03-06T02:52:31.075Z,0.30
2018-03-06T02:54:59.415Z,0.30
2018-03-06T02:57:26.997Z,0.30
2018-03-06T02:59:54.582Z,0.30
2018-03-06T03:02:22.189Z,0.20
2018-03-06T03:04:49.775Z,0.10
2018-03-06T03:07:17.383Z,0.20
2018-03-06T03:09:44.984Z,0.20
2018-03-06T03:12:12.564Z,0.00
2018-03-06T03:14:40.138Z,0.10
2018-03-06T03:17:08.497Z,0.00
2018-03-06T03:19:36.089Z,0.00
2018-03-06T03:22:04.455Z,-0.10
2018-03-06T03:24:32.785Z,-0.10
2018-03-06T03:27:00.381Z,-0.10
2018-03-06T03:29:27.969Z,-0.10
2018-03-06T03:31:56.326Z,-0.10
2018-03-06T03:34:24.698Z,-0.10
2018-03-06T03:36:52.278Z,-0.20
2018-03-06T03:39:20.672Z,-0.20
2018-03-06T03:41:48.254Z,-0.20
2018-03-06T03:44:15.826Z,-0.20
2018-03-06T03:46:43.408Z,-0.20
2018-03-06T03:49:11.785Z,-0.20
2018-03-06T03:51:39.360Z,-0.20
2018-03-06T03:54:08.465Z,-0.20
2018-03-06T03:56:36.803Z,-0.30
2018-03-06T03:59:04.366Z,-0.30
2018-03-06T04:01:31.972Z,-0.30
2018-03-06T04:04:00.328Z,-0.20
2018-03-06T04:06:29.444Z,-0.10
2018-03-06T04:08:57.786Z,-0.20
2018-03-06T04:11:25.372Z,-0.20
2018-03-06T04:13:52.947Z,-0.20
2018-03-06T04:16:21.321Z,-0.20
2018-03-06T04:18:49.666Z,-0.30
2018-03-06T04:21:17.247Z,-0.30
2018-03-06T04:23:45.612Z,-0.40
2018-03-06T04:26:13.185Z,-0.40
2018-03-06T04:28:40.789Z,-0.40
2018-03-06T04:31:08.352Z,-0.30
2018-03-06T04:33:35.954Z,-0.40
2018-03-06T04:36:03.521Z,-0.40
2018-03-06T04:38:31.097Z,-0.50
2018-03-06T04:40:59.428Z,-0.40
2018-03-06T04:43:27.022Z,-0.40
2018-03-06T04:45:54.604Z,-0.50
2018-03-06T04:48:22.976Z,-0.50
2018-03-06T04:50:51.316Z,-0.50
2018-03-06T04:53:18.910Z,-0.50
2018-03-06T04:55:46.501Z,-0.50
2018-03-06T04:58:14.066Z,-0.50
2018-03-06T05:00:41.664Z,-0.50
2018-03-06T05:03:09.262Z,-0.60
2018-03-06T05:05:37.637Z,-0.60
2018-03-06T05:08:05.198Z,-0.60
2018-03-06T05:10:33.557Z,-0.70
2018-03-06T05:13:01.129Z,-0.70
2018-03-06T05:15:28.739Z,-0.70
2018-03-06T05:17:56.589Z,-0.70
2018-03-06T05:20:24.197Z,-0.70
2018-03-06T05:22:51.773Z,-0.80
2018-03-06T05:25:19.352Z,-0.70
2018-03-06T05:27:47.737Z,-0.70
2018-03-06T05:30:16.080Z,-0.70
2018-03-06T05:32:43.676Z,-0.70
2018-03-06T05:35:12.037Z,-0.70
2018-03-06T05:37:40.413Z,-0.70
2018-03-06T05:40:07.992Z,-0.70
2018-03-06T05:42:36.368Z,-0.70
2018-03-06T05:45:04.733Z,-0.70
2018-03-06T05:47:32.320Z,-0.80
2018-03-06T05:49:59.920Z,-0.70
2018-03-06T05:52:27.477Z,-0.60
2018-03-06T05:54:55.101Z,-0.60
2018-03-06T05:57:22.726Z,-0.60
2018-03-06T05:59:50.332Z,-0.60
2018-03-06T06:02:17.918Z,-0.60
2018-03-06T06:04:45.500Z,-0.60
2018-03-06T06:07:13.106Z,-0.50
2018-03-06T06:09:40.708Z,-0.50
2018-03-06T06:12:08.332Z,-0.50
2018-03-06T06:14:35.925Z,-0.40
2018-03-06T06:17:03.513Z,-0.60
2018-03-06T06:19:31.084Z,-0.60
2018-03-06T06:21:58.672Z,-0.50
2018-03-06T06:24:26.299Z,-0.40
2018-03-06T06:26:53.833Z,-0.30
2018-03-06T06:29:21.389Z,-0.30
2018-03-06T06:31:49.013Z,-0.30
2018-03-06T06:34:16.604Z,-0.20
2018-03-06T06:36:44.177Z,-0.10
2018-03-06T06:39:11.781Z,0.00
2018-03-06T06:41:39.338Z,0.00
2018-03-06T06:44:06.909Z,0.10
2018-03-06T06:46:35.274Z,0.30
2018-03-06T06:49:02.829Z,0.20
2018-03-06T06:51:30.392Z,0.40
2018-03-06T06:53:57.985Z,0.50
2018-03-06T06:56:27.156Z,0.70
2018-03-06T06:58:54.712Z,0.70
2018-03-06T07:01:22.285Z,0.80
2018-03-06T07:03:49.880Z,0.90
2018-03-06T07:06:18.388Z,1.10
2018-03-06T07:08:45.983Z,1.10
2018-03-06T07:11:13.591Z,1.30
2018-03-06T07:13:41.163Z,1.40
2018-03-06T07:16:09.273Z,1.50
2018-03-06T07:18:36.825Z,1.50
2018-03-06T07:21:04.397Z,1.70
2018-03-06T07:23:31.975Z,1.90
2018-03-06T07:26:00.301Z,2.10
2018-03-06T07:28:27.853Z,2.00
2018-03-06T07:30:55.441Z,2.30
2018-03-06T07:33:22.994Z,2.60
2018-03-06T07:35:50.570Z,2.70
2018-03-06T07:38:18.193Z,2.90
2018-03-06T07:40:45.771Z,3.10
2018-03-06T07:43:13.348Z,3.10
2018-03-06T07:45:40.915Z,3.30
2018-03-06T07:48:08.521Z,3.50
2018-03-06T07:50:36.105Z,3.80
2018-03-06T07:53:03.653Z,3.90
2018-03-06T07:55:31.382Z,4.10
2018-03-06T07:57:59.766Z,4.50
2018-03-06T08:00:28.120Z,4.60
2018-03-06T08:02:55.689Z,4.50
2018-03-06T08:05:24.018Z,5.00
2018-03-06T08:07:51.617Z,5.00
2018-03-06T08:10:19.198Z,5.30
2018-03-06T08:12:47.529Z,5.50
2018-03-06T08:15:15.065Z,5.50
2018-03-06T08:17:42.634Z,6.00
2018-03-06T08:20:10.191Z,6.20
2018-03-06T08:22:37.794Z,6.10
2018-03-06T08:25:05.357Z,7.20
2018-03-06T08:27:32.938Z,7.50
2018-03-06T08:30:01.280Z,7.30
2018-03-06T08:32:28.838Z,7.20
2018-03-06T08:34:56.404Z,8.10
2018-03-06T08:37:23.960Z,8.60
2018-03-06T08:39:51.530Z,8.80
2018-03-06T08:42:19.117Z,8.70
2018-03-06T08:44:47.486Z,7.80
2018-03-06T08:47:15.063Z,7.80
2018-03-06T08:49:43.419Z,8.10
2018-03-06T08:52:11.001Z,8.10
2018-03-06T08:54:39.345Z,8.60
2018-03-06T08:57:06.928Z,8.60
2018-03-06T08:59:35.272Z,9.40
2018-03-06T09:02:02.849Z,9.30
2018-03-06T09:04:30.423Z,9.50
2018-03-06T09:06:57.973Z,9.70
2018-03-06T09:09:25.537Z,9.70
2018-03-06T09:11:53.122Z,10.00
2018-03-06T09:14:20.682Z,9.80
2018-03-06T09:16:48.245Z,10.10
2018-03-06T09:19:17.010Z,10.10
2018-03-06T09:21:44.590Z,10.20
2018-03-06T09:24:12.181Z,11.00
2018-03-06T09:26:39.765Z,10.70
2018-03-06T09:29:07.349Z,10.40
2018-03-06T09:31:34.930Z,11.10
2018-03-06T09:34:02.531Z,10.90
2018-03-06T09:36:30.096Z,10.90
2018-03-06T09:38:57.656Z,10.50
2018-03-06T09:41:25.225Z,10.90
2018-03-06T09:43:52.846Z,11.40
2018-03-06T09:46:20.427Z,11.30
2018-03-06T09:48:47.974Z,11.40
2018-03-06T09:51:15.544Z,11.00
2018-03-06T09:53:43.111Z,11.50
2018-03-06T09:56:10.721Z,12.00
2018-03-06T09:58:38.285Z,11.70
2018-03-06T10:01:06.658Z,11.60
2018-03-06T10:03:35.013Z,12.10
2018-03-06T10:06:02.574Z,12.10
2018-03-06T10:08:30.164Z,12.70
2018-03-06T10:10:57.765Z,13.00
2018-03-06T10:13:25.322Z,13.20
2018-03-06T10:15:52.908Z,13.30
2018-03-06T10:18:20.466Z,13.20
2018-03-06T10:20:48.042Z,13.50
2018-03-06T10:23:15.602Z,13.20
2018-03-06T10:25:43.175Z,13.20
2018-03-06T10:28:10.790Z,13.30
2018-03-06T10:30:38.364Z,13.40
2018-03-06T10:33:05.910Z,13.20
2018-03-06T10:35:33.497Z,13.50
2018-03-06T10:38:01.049Z,13.40
2018-03-06T10:40:28.604Z,13.60
2018-03-06T10:42:56.201Z,13.90
2018-03-06T10:45:24.533Z,12.90
2018-03-06T10:47:52.117Z,12.90
2018-03-06T10:50:19.682Z,12.90
2018-03-06T10:52:47.245Z,12.90
2018-03-06T10:55:14.832Z,12.80
2018-03-06T10:57:43.137Z,13.30
2018-03-06T11:00:10.760Z,13.20
2018-03-06T11:02:43.006Z,13.10
2018-03-06T11:05:10.562Z,13.10
2018-03-06T11:07:38.119Z,13.60
2018-03-06T11:10:05.705Z,12.90
2018-03-06T11:12:34.051Z,13.00
2018-03-06T11:15:01.627Z,13.00
2018-03-06T11:17:29.238Z,13.10
2018-03-06T11:19:56.849Z,13.30
2018-03-06T11:22:24.402Z,13.30
2018-03-06T11:24:51.982Z,13.50
2018-03-06T11:27:19.525Z,13.60
2018-03-06T11:29:47.112Z,13.20
2018-03-06T11:32:15.444Z,12.90
2018-03-06T11:34:43.034Z,12.90
2018-03-06T11:37:10.610Z,13.10
2018-03-06T11:39:38.989Z,13.00
2018-03-06T11:42:07.788Z,13.20
2018-03-06T11:44:35.349Z,13.10
2018-03-06T11:47:03.703Z,13.20
2018-03-06T11:49:31.337Z,13.20
2018-03-06T11:51:58.892Z,12.80
2018-03-06T11:54:26.492Z,12.60
2018-03-06T11:56:54.850Z,13.00
2018-03-06T11:59:22.451Z,12.90
2018-03-06T12:01:50.024Z,13.20
2018-03-06T12:04:17.600Z,12.40
2018-03-06T12:06:45.171Z,12.50
2018-03-06T12:09:12.822Z,12.60
2018-03-06T12:11:40.385Z,12.70
2018-03-06T12:14:07.979Z,12.70
2018-03-06T12:16:35.559Z,12.20
2018-03-06T12:19:03.927Z,12.60
2018-03-06T12:21:31.495Z,12.60
2018-03-06T12:23:59.111Z,12.70
2018-03-06T12:26:26.715Z,12.60
2018-03-06T12:28:54.307Z,12.60
2018-03-06T12:31:21.925Z,12.20
2018-03-06T12:33:49.503Z,12.60
2018-03-06T12:36:17.854Z,12.60
2018-03-06T12:38:45.410Z,12.60
2018-03-06T12:41:12.982Z,12.80
2018-03-06T12:43:40.557Z,12.70
2018-03-06T12:46:08.943Z,12.90
2018-03-06T12:48:37.285Z,12.80
2018-03-06T12:51:04.864Z,12.80
2018-03-06T12:53:32.417Z,12.60
2018-03-06T12:56:00.006Z,13.00
2018-03-06T12:58:28.369Z,13.30
2018-03-06T13:00:55.962Z,13.20
2018-03-06T13:03:23.557Z,13.40
2018-03-06T13:05:51.133Z,13.40
2018-03-06T13:08:19.212Z,13.60
2018-03-06T13:10:46.776Z,13.60
2018-03-06T13:13:14.358Z,13.60
2018-03-06T13:15:42.711Z,13.70
2018-03-06T13:18:10.317Z,13.60
2018-03-06T13:20:37.871Z,13.70
2018-03-06T13:23:05.473Z,13.90
2018-03-06T13:25:33.062Z,13.70
2018-03-06T13:28:00.671Z,13.60
2018-03-06T13:30:28.233Z,13.60
2018-03-06T13:32:55.812Z,13.50
2018-03-06T13:35:23.381Z,13.80
2018-03-06T13:37:50.953Z,13.70
2018-03-06T13:40:18.519Z,13.70
2018-03-06T13:42:46.101Z,13.10
2018-03-06T13:45:14.429Z,13.50
2018-03-06T13:47:42.013Z,13.50
2018-03-06T13:50:09.591Z,13.60
2018-03-06T13:52:37.928Z,13.50
2018-03-06T13:55:05.553Z,13.50
2018-03-06T13:57:33.878Z,13.90
2018-03-06T14:00:01.461Z,13.90
2018-03-06T14:02:29.019Z,13.70
2018-03-06T14:04:58.101Z,13.60
2018-03-06T14:07:25.694Z,13.60
2018-03-06T14:09:54.050Z,13.40
2018-03-06T14:12:21.616Z,13.40
2018-03-06T14:14:49.247Z,13.10
2018-03-06T14:17:17.010Z,12.80
2018-03-06T14:19:44.628Z,12.70
2018-03-06T14:22:12.971Z,12.70
2018-03-06T14:24:40.614Z,12.60
2018-03-06T14:27:08.223Z,12.50
2018-03-06T14:29:36.959Z,12.50
2018-03-06T14:32:04.529Z,12.50
2018-03-06T14:34:32.116Z,12.60
2018-03-06T14:36:59.711Z,12.50
2018-03-06T14:39:27.273Z,12.20
2018-03-06T14:41:54.865Z,11.90
2018-03-06T14:44:22.423Z,11.80
2018-03-06T14:46:50.041Z,11.80
2018-03-06T14:49:18.370Z,11.30
2018-03-06T14:51:45.946Z,11.30
2018-03-06T14:54:13.557Z,11.20
2018-03-06T14:56:41.151Z,11.30
2018-03-06T14:59:09.589Z,11.30
2018-03-06T15:01:37.906Z,11.00
2018-03-06T15:04:05.478Z,11.00
2018-03-06T15:06:33.079Z,11.00
2018-03-06T15:09:00.637Z,11.10
2018-03-06T15:11:29.790Z,10.70
2018-03-06T15:13:57.349Z,10.70
2018-03-06T15:16:24.947Z,10.70
2018-03-06T15:18:52.506Z,10.70
2018-03-06T15:21:20.114Z,10.80
2018-03-06T15:23:47.664Z,10.90
2018-03-06T15:26:15.295Z,10.70
2018-03-06T15:28:42.850Z,10.70
2018-03-06T15:31:10.444Z,10.60
2018-03-06T15:33:38.033Z,10.60
2018-03-06T15:36:06.735Z,10.70
2018-03-06T15:38:34.298Z,10.70
2018-03-06T15:41:02.231Z,10.60
2018-03-06T15:43:31.527Z,10.60
2018-03-06T15:45:59.241Z,10.50
2018-03-06T15:48:26.971Z,10.50
2018-03-06T15:50:54.598Z,10.50
2018-03-06T15:53:22.994Z,10.50
2018-03-06T15:55:51.273Z,10.50
2018-03-06T15:58:18.928Z,10.40
2018-03-06T16:00:46.535Z,10.40
2018-03-06T16:03:14.159Z,10.20
2018-03-06T16:05:41.757Z,10.30
2018-03-06T16:08:09.377Z,10.10
2018-03-06T16:10:37.020Z,10.10
2018-03-06T16:13:05.444Z,9.80
2018-03-06T16:15:33.023Z,9.80
2018-03-06T16:18:00.771Z,9.80
2018-03-06T16:20:28.454Z,9.70
2018-03-06T16:22:56.084Z,9.50
2018-03-06T16:25:23.735Z,9.30
2018-03-06T16:27:51.337Z,9.20
2018-03-06T16:30:18.958Z,9.10
2018-03-06T16:32:46.583Z,9.20
2018-03-06T16:35:15.013Z,8.90
2018-03-06T16:37:42.600Z,8.90
2018-03-06T16:40:10.210Z,8.90
2018-03-06T16:42:38.003Z,8.80
2018-03-06T16:45:05.624Z,8.70
2018-03-06T16:47:33.994Z,8.70
2018-03-06T16:50:02.381Z,8.90
2018-03-06T16:52:29.979Z,8.90
2018-03-06T16:54:57.585Z,8.60
2018-03-06T16:57:25.977Z,8.30
2018-03-06T16:59:54.338Z,8.20
2018-03-06T17:02:22.547Z,8.20
2018-03-06T17:04:50.256Z,8.10
2018-03-06T17:07:17.869Z,8.00
2018-03-06T17:09:46.214Z,7.80
2018-03-06T17:12:14.151Z,7.80
2018-03-06T17:14:41.749Z,7.50
2018-03-06T17:17:09.386Z,7.40
2018-03-06T17:19:36.989Z,7.20
2018-03-06T17:22:05.410Z,7.00
2018-03-06T17:24:33.026Z,7.00
2018-03-06T17:27:02.161Z,6.80
2018-03-06T17:29:29.791Z,6.70
2018-03-06T17:31:58.154Z,6.80
2018-03-06T17:34:25.746Z,6.70
2018-03-06T17:36:53.324Z,6.70
2018-03-06T17:39:20.947Z,6.50
2018-03-06T17:41:49.329Z,6.30
2018-03-06T17:44:17.855Z,6.20
2018-03-06T17:46:45.437Z,6.10
2018-03-06T17:49:13.044Z,6.10
2018-03-06T17:51:41.590Z,6.00
2018-03-06T17:54:09.209Z,6.00
2018-03-06T17:56:36.891Z,5.90
2018-03-06T17:59:04.519Z,5.80
2018-03-06T18:01:32.126Z,5.80
2018-03-06T18:03:59.722Z,5.80
2018-03-06T18:06:28.156Z,5.90
2018-03-06T18:08:55.747Z,5.80
2018-03-06T18:11:23.350Z,5.80
2018-03-06T18:13:51.016Z,5.80
2018-03-06T18:16:18.622Z,5.80
2018-03-06T18:18:46.245Z,5.80
2018-03-06T18:21:13.918Z,5.70
2018-03-06T18:23:41.506Z,5.70
2018-03-06T18:26:09.121Z,5.60
2018-03-06T18:28:37.521Z,5.60
2018-03-06T18:31:05.128Z,5.70
2018-03-06T18:33:33.527Z,5.80
2018-03-06T18:36:01.898Z,5.60
2018-03-06T18:38:30.299Z,5.60
2018-03-06T18:40:57.898Z,5.50
2018-03-06T18:43:25.497Z,5.40
2018-03-06T18:45:53.926Z,5.20
2018-03-06T18:48:21.541Z,5.20
2018-03-06T18:51:01.641Z,5.40
2018-03-06T18:53:30.201Z,5.40
2018-03-06T18:55:57.776Z,5.20
2018-03-06T18:58:25.394Z,5.10
2018-03-06T19:01:05.684Z,5.10
2018-03-06T19:03:45.092Z,5.00
2018-03-06T19:06:24.314Z,5.00
2018-03-06T19:08:52.709Z,5.00
2018-03-06T19:11:21.106Z,5.00
2018-03-06T19:13:49.468Z,5.20
2018-03-06T19:16:17.832Z,5.30
2018-03-06T19:18:45.418Z,5.30
2018-03-06T19:21:13.026Z,5.40
2018-03-06T19:23:40.610Z,5.60
2018-03-06T19:26:08.231Z,5.70
2018-03-06T19:28:35.829Z,5.70
2018-03-06T19:31:03.524Z,5.60
2018-03-06T19:33:31.110Z,5.50
2018-03-06T19:35:58.739Z,5.60
2018-03-06T19:38:27.075Z,5.70
2018-03-06T19:40:54.639Z,5.60
2018-03-06T19:43:22.256Z,5.90
2018-03-06T19:45:49.815Z,5.90
2018-03-06T19:48:17.391Z,6.00
2018-03-06T19:50:44.949Z,6.00
2018-03-06T19:53:12.515Z,6.00
2018-03-06T19:55:40.118Z,6.10
2018-03-06T19:58:07.746Z,6.20
2018-03-06T20:00:35.315Z,6.20
2018-03-06T20:03:02.858Z,6.20
2018-03-06T20:05:30.438Z,6.10
2018-03-06T20:07:58.049Z,6.00
2018-03-06T20:10:26.359Z,6.00
2018-03-06T20:12:53.970Z,6.00
2018-03-06T20:15:21.546Z,6.00
2018-03-06T20:17:49.858Z,6.00
2018-03-06T20:20:17.420Z,6.00
2018-03-06T20:22:44.976Z,6.00
2018-03-06T20:25:18.253Z,6.10
2018-03-06T20:27:45.974Z,6.00
2018-03-06T20:30:20.166Z,6.00
2018-03-06T20:32:53.549Z,6.00
2018-03-06T20:35:21.169Z,6.10
2018-03-06T20:37:49.506Z,6.10
2018-03-06T20:40:22.792Z,6.10
2018-03-06T20:42:50.362Z,5.90
2018-03-06T20:45:17.917Z,6.00
2018-03-06T20:47:45.514Z,6.10
2018-03-06T20:50:13.847Z,5.80
2018-03-06T20:52:47.008Z,5.80
2018-03-06T20:55:15.320Z,5.70
2018-03-06T20:57:42.903Z,5.70
2018-03-06T21:00:10.450Z,5.60
2018-03-06T21:02:38.027Z,5.60
2018-03-06T21:05:05.588Z,5.50
2018-03-06T21:07:34.512Z,5.50
2018-03-06T21:10:02.877Z,5.60
2018-03-06T21:12:31.193Z,5.60
2018-03-06T21:14:59.463Z,5.50
2018-03-06T21:17:27.001Z,5.60
2018-03-06T21:19:55.355Z,5.50
2018-03-06T21:22:22.947Z,5.50
2018-03-06T21:24:51.308Z,5.50
2018-03-06T21:27:19.673Z,5.60
2018-03-06T21:29:47.254Z,5.50
2018-03-06T21:32:15.623Z,5.50
2018-03-06T21:34:43.168Z,5.50
2018-03-06T21:37:10.762Z,5.60
2018-03-06T21:39:39.073Z,5.50
2018-03-06T21:42:06.684Z,5.40
2018-03-06T21:44:35.116Z,5.50
2018-03-06T21:47:02.670Z,5.50
2018-03-06T21:49:30.236Z,5.50
2018-03-06T21:51:57.812Z,5.50
2018-03-06T21:54:25.400Z,5.60
2018-03-06T21:56:53.044Z,5.50
2018-03-06T21:59:20.624Z,5.50
2018-03-06T22:01:48.985Z,5.50
2018-03-06T22:04:16.541Z,5.40
2018-03-06T22:06:44.090Z,5.50
2018-03-06T22:09:11.644Z,5.50
2018-03-06T22:11:39.194Z,5.60
2018-03-06T22:14:06.777Z,5.60
2018-03-06T22:16:34.376Z,5.70
2018-03-06T22:19:02.691Z,5.70
2018-03-06T22:21:30.265Z,5.70
2018-03-06T22:23:57.847Z,5.50
2018-03-06T22:26:25.400Z,5.50
2018-03-06T22:28:52.960Z,5.50
2018-03-06T22:31:20.530Z,5.60
2018-03-06T22:33:48.077Z,5.60
2018-03-06T22:36:15.645Z,5.60
2018-03-06T22:38:43.194Z,5.60
2018-03-06T22:41:10.778Z,5.60
2018-03-06T22:43:38.362Z,5.60
2018-03-06T22:46:05.930Z,5.70
2018-03-06T22:48:33.500Z,5.60
2018-03-06T22:51:01.093Z,5.70
2018-03-06T22:53:28.649Z,5.80
2018-03-06T22:55:56.243Z,5.80
2018-03-06T22:58:24.560Z,5.80
2018-03-06T23:00:52.134Z,5.80
2018-03-06T23:03:19.681Z,5.80
2018-03-06T23:05:47.244Z,5.60
2018-03-06T23:08:14.794Z,5.60
2018-03-06T23:10:42.416Z,5.50
2018-03-06T23:13:09.978Z,5.60
2018-03-06T23:15:37.557Z,5.60
2018-03-06T23:18:05.876Z,5.60
2018-03-06T23:20:33.434Z,5.60
2018-03-06T23:23:00.979Z,5.60
2018-03-06T23:25:28.557Z,5.60
2018-03-06T23:30:46.732Z,5.50
2018-03-06T23:33:14.278Z,5.40
2018-03-06T23:35:41.850Z,5.40
2018-03-06T23:38:09.419Z,5.40
2018-03-06T23:40:36.981Z,5.40
2018-03-06T23:43:04.524Z,5.40
2018-03-06T23:45:32.095Z,5.40
2018-03-06T23:47:59.682Z,5.40
2018-03-06T23:50:28.013Z,5.40
2018-03-06T23:52:55.582Z,5.40
2018-03-06T23:55:23.139Z,5.40
2018-03-06T23:57:50.690Z,5.30
